sensor_id;sensor_type;location;lat;lon;timestamp;temperature;humidity
22623;DHT22;11478;51.094;7.030;2023-04-26T00:01:01;1.30;99.90
22623;DHT22;11478;51.094;7.030;2023-04-26T00:03:30;1.30;99.90
22623;DHT22;11478;51.094;7.030;2023-04-26T00:05:56;1.30;99.90
22623;DHT22;11478;51.094;7.030;2023-04-26T00:08:22;1.20;99.90
22623;DHT22;11478;51.094;7.030;2023-04-26T00:10:48;1.20;99.90
22623;DHT22;11478;51.094;7.030;2023-04-26T00:13:13;1.20;99.90
22623;DHT22;11478;51.094;7.030;2023-04-26T00:15:42;1.10;99.90
22623;DHT22;11478;51.094;7.030;2023-04-26T00:18:08;1.10;99.90
22623;DHT22;11478;51.094;7.030;2023-04-26T00:20:42;1.10;99.90
22623;DHT22;11478;51.094;7.030;2023-04-26T00:23:07;1.00;99.90
22623;DHT22;11478;51.094;7.030;2023-04-26T00:25:37;1.00;99.90
22623;DHT22;11478;51.094;7.030;2023-04-26T00:28:03;1.00;99.90
22623;DHT22;11478;51.094;7.030;2023-04-26T00:30:29;1.00;99.90
22623;DHT22;11478;51.094;7.030;2023-04-26T00:32:55;0.90;99.90
22623;DHT22;11478;51.094;7.030;2023-04-26T00:35:27;0.90;99.90
22623;DHT22;11478;51.094;7.030;2023-04-26T00:37:53;0.90;99.90
22623;DHT22;11478;51.094;7.030;2023-04-26T00:40:20;0.90;99.90
22623;DHT22;11478;51.094;7.030;2023-04-26T00:42:46;0.90;99.90
22623;DHT22;11478;51.094;7.030;2023-04-26T00:45:21;0.90;99.90
22623;DHT22;11478;51.094;7.030;2023-04-26T00:47:48;0.90;99.90
22623;DHT22;11478;51.094;7.030;2023-04-26T00:50:14;0.90;99.90
22623;DHT22;11478;51.094;7.030;2023-04-26T00:53:00;0.80;99.90
22623;DHT22;11478;51.094;7.030;2023-04-26T00:55:27;0.80;99.90
22623;DHT22;11478;51.094;7.030;2023-04-26T00:57:53;0.80;99.90
22623;DHT22;11478;51.094;7.030;2023-04-26T01:00:19;0.80;99.90
22623;DHT22;11478;51.094;7.030;2023-04-26T01:02:47;0.80;99.90
22623;DHT22;11478;51.094;7.030;2023-04-26T01:05:13;0.80;99.90
22623;DHT22;11478;51.094;7.030;2023-04-26T01:07:39;0.80;99.90
22623;DHT22;11478;51.094;7.030;2023-04-26T01:10:05;0.70;99.90
22623;DHT22;11478;51.094;7.030;2023-04-26T01:12:33;0.70;99.90
22623;DHT22;11478;51.094;7.030;2023-04-26T01:14:59;0.70;99.90
22623;DHT22;11478;51.094;7.030;2023-04-26T01:17:25;0.70;99.90
22623;DHT22;11478;51.094;7.030;2023-04-26T01:19:52;0.60;99.90
22623;DHT22;11478;51.094;7.030;2023-04-26T01:22:24;0.60;99.90
22623;DHT22;11478;51.094;7.030;2023-04-26T01:24:50;0.50;99.90
22623;DHT22;11478;51.094;7.030;2023-04-26T01:27:22;0.50;99.90
22623;DHT22;11478;51.094;7.030;2023-04-26T01:29:48;0.40;99.90
22623;DHT22;11478;51.094;7.030;2023-04-26T01:32:15;0.40;99.90
22623;DHT22;11478;51.094;7.030;2023-04-26T01:34:41;0.30;99.90
22623;DHT22;11478;51.094;7.030;2023-04-26T01:37:12;0.30;99.90
22623;DHT22;11478;51.094;7.030;2023-04-26T01:39:38;0.20;99.90
22623;DHT22;11478;51.094;7.030;2023-04-26T01:42:07;0.20;99.90
22623;DHT22;11478;51.094;7.030;2023-04-26T01:44:33;0.20;99.90
22623;DHT22;11478;51.094;7.030;2023-04-26T01:47:08;0.30;99.90
22623;DHT22;11478;51.094;7.030;2023-04-26T01:49:37;0.30;99.90
22623;DHT22;11478;51.094;7.030;2023-04-26T01:52:03;0.30;99.90
22623;DHT22;11478;51.094;7.030;2023-04-26T01:54:35;0.30;99.90
22623;DHT22;11478;51.094;7.030;2023-04-26T01:57:01;0.30;99.90
22623;DHT22;11478;51.094;7.030;2023-04-26T01:59:27;0.30;99.90
22623;DHT22;11478;51.094;7.030;2023-04-26T02:01:53;0.30;99.90
22623;DHT22;11478;51.094;7.030;2023-04-26T02:04:29;0.30;99.90
22623;DHT22;11478;51.094;7.030;2023-04-26T02:06:55;0.20;99.90
22623;DHT22;11478;51.094;7.030;2023-04-26T02:09:40;0.20;99.90
22623;DHT22;11478;51.094;7.030;2023-04-26T02:12:05;0.20;99.90
22623;DHT22;11478;51.094;7.030;2023-04-26T02:14:37;0.20;99.90
22623;DHT22;11478;51.094;7.030;2023-04-26T02:17:03;0.20;99.90
22623;DHT22;11478;51.094;7.030;2023-04-26T02:19:49;0.20;99.90
22623;DHT22;11478;51.094;7.030;2023-04-26T02:22:15;0.20;99.90
22623;DHT22;11478;51.094;7.030;2023-04-26T02:27:32;0.10;99.90
22623;DHT22;11478;51.094;7.030;2023-04-26T02:30:00;0.00;99.90
22623;DHT22;11478;51.094;7.030;2023-04-26T02:32:26;0.00;99.90
22623;DHT22;11478;51.094;7.030;2023-04-26T02:34:59;0.00;99.90
22623;DHT22;11478;51.094;7.030;2023-04-26T02:37:26;-0.10;99.90
22623;DHT22;11478;51.094;7.030;2023-04-26T02:40:18;-0.10;99.90
22623;DHT22;11478;51.094;7.030;2023-04-26T02:42:44;-0.10;99.90
22623;DHT22;11478;51.094;7.030;2023-04-26T02:45:26;-0.20;99.90
22623;DHT22;11478;51.094;7.030;2023-04-26T02:47:52;-0.20;99.90
22623;DHT22;11478;51.094;7.030;2023-04-26T02:50:18;-0.10;99.90
22623;DHT22;11478;51.094;7.030;2023-04-26T02:52:52;-0.10;99.90
22623;DHT22;11478;51.094;7.030;2023-04-26T02:55:17;-0.10;99.90
22623;DHT22;11478;51.094;7.030;2023-04-26T02:57:43;-0.10;99.90
22623;DHT22;11478;51.094;7.030;2023-04-26T03:00:10;-0.10;99.90
22623;DHT22;11478;51.094;7.030;2023-04-26T03:02:39;-0.20;99.90
22623;DHT22;11478;51.094;7.030;2023-04-26T03:05:05;-0.20;99.90
22623;DHT22;11478;51.094;7.030;2023-04-26T03:07:39;-0.10;99.90
22623;DHT22;11478;51.094;7.030;2023-04-26T03:10:05;-0.10;99.90
22623;DHT22;11478;51.094;7.030;2023-04-26T03:12:33;-0.20;99.90
22623;DHT22;11478;51.094;7.030;2023-04-26T03:14:59;-0.10;99.90
22623;DHT22;11478;51.094;7.030;2023-04-26T03:17:25;-0.10;99.90
22623;DHT22;11478;51.094;7.030;2023-04-26T03:19:51;-0.10;99.90
22623;DHT22;11478;51.094;7.030;2023-04-26T03:22:23;-0.10;99.90
22623;DHT22;11478;51.094;7.030;2023-04-26T03:24:49;-0.20;99.90
22623;DHT22;11478;51.094;7.030;2023-04-26T03:27:21;-0.20;99.90
22623;DHT22;11478;51.094;7.030;2023-04-26T03:29:47;-0.20;99.90
22623;DHT22;11478;51.094;7.030;2023-04-26T03:32:14;-0.20;99.90
22623;DHT22;11478;51.094;7.030;2023-04-26T03:34:40;-0.20;99.90
22623;DHT22;11478;51.094;7.030;2023-04-26T03:40:10;-0.30;99.90
22623;DHT22;11478;51.094;7.030;2023-04-26T03:42:41;-0.30;99.90
22623;DHT22;11478;51.094;7.030;2023-04-26T03:45:08;-0.30;99.90
22623;DHT22;11478;51.094;7.030;2023-04-26T03:47:56;-0.30;99.90
22623;DHT22;11478;51.094;7.030;2023-04-26T03:50:24;-0.30;99.90
22623;DHT22;11478;51.094;7.030;2023-04-26T03:52:49;-0.30;99.90
22623;DHT22;11478;51.094;7.030;2023-04-26T03:55:25;-0.30;99.90
22623;DHT22;11478;51.094;7.030;2023-04-26T03:57:51;-0.30;99.90
22623;DHT22;11478;51.094;7.030;2023-04-26T04:00:18;-0.30;99.90
22623;DHT22;11478;51.094;7.030;2023-04-26T04:02:44;-0.30;99.90
22623;DHT22;11478;51.094;7.030;2023-04-26T04:05:12;-0.40;99.90
22623;DHT22;11478;51.094;7.030;2023-04-26T04:07:38;-0.40;99.90
22623;DHT22;11478;51.094;7.030;2023-04-26T04:10:28;-0.40;99.90
22623;DHT22;11478;51.094;7.030;2023-04-26T04:12:54;-0.30;99.90
22623;DHT22;11478;51.094;7.030;2023-04-26T04:15:23;-0.40;99.90
22623;DHT22;11478;51.094;7.030;2023-04-26T04:17:49;-0.40;99.90
22623;DHT22;11478;51.094;7.030;2023-04-26T04:20:25;-0.30;99.90
22623;DHT22;11478;51.094;7.030;2023-04-26T04:22:52;-0.40;99.90
22623;DHT22;11478;51.094;7.030;2023-04-26T04:25:24;-0.40;99.90
22623;DHT22;11478;51.094;7.030;2023-04-26T04:27:50;-0.30;99.90
22623;DHT22;11478;51.094;7.030;2023-04-26T04:30:24;-0.40;99.90
22623;DHT22;11478;51.094;7.030;2023-04-26T04:32:50;-0.40;99.90
22623;DHT22;11478;51.094;7.030;2023-04-26T04:35:25;-0.30;99.90
22623;DHT22;11478;51.094;7.030;2023-04-26T04:37:56;-0.30;99.90
22623;DHT22;11478;51.094;7.030;2023-04-26T04:40:26;-0.30;99.90
22623;DHT22;11478;51.094;7.030;2023-04-26T04:42:52;-0.30;99.90
22623;DHT22;11478;51.094;7.030;2023-04-26T04:45:24;-0.30;99.90
22623;DHT22;11478;51.094;7.030;2023-04-26T04:47:50;-0.30;99.90
22623;DHT22;11478;51.094;7.030;2023-04-26T04:50:45;-0.30;99.90
22623;DHT22;11478;51.094;7.030;2023-04-26T04:53:11;-0.30;99.90
22623;DHT22;11478;51.094;7.030;2023-04-26T04:56:12;-0.30;99.90
22623;DHT22;11478;51.094;7.030;2023-04-26T04:58:38;-0.30;99.90
22623;DHT22;11478;51.094;7.030;2023-04-26T05:01:05;-0.20;99.90
22623;DHT22;11478;51.094;7.030;2023-04-26T05:03:31;-0.20;99.90
22623;DHT22;11478;51.094;7.030;2023-04-26T05:06:01;-0.10;99.90
22623;DHT22;11478;51.094;7.030;2023-04-26T05:08:27;0.00;99.90
22623;DHT22;11478;51.094;7.030;2023-04-26T05:10:57;0.10;99.90
22623;DHT22;11478;51.094;7.030;2023-04-26T05:13:23;0.20;99.90
22623;DHT22;11478;51.094;7.030;2023-04-26T05:15:50;0.30;99.90
22623;DHT22;11478;51.094;7.030;2023-04-26T05:18:16;0.40;99.90
22623;DHT22;11478;51.094;7.030;2023-04-26T05:20:59;0.40;99.90
22623;DHT22;11478;51.094;7.030;2023-04-26T05:23:25;0.40;99.90
22623;DHT22;11478;51.094;7.030;2023-04-26T05:26:15;0.40;99.90
22623;DHT22;11478;51.094;7.030;2023-04-26T05:28:41;0.50;99.90
22623;DHT22;11478;51.094;7.030;2023-04-26T05:31:11;0.50;99.90
22623;DHT22;11478;51.094;7.030;2023-04-26T05:33:37;0.60;99.90
22623;DHT22;11478;51.094;7.030;2023-04-26T05:36:20;0.70;99.90
22623;DHT22;11478;51.094;7.030;2023-04-26T05:38:46;0.80;99.90
22623;DHT22;11478;51.094;7.030;2023-04-26T05:41:28;0.80;99.90
22623;DHT22;11478;51.094;7.030;2023-04-26T05:43:54;0.80;99.90
22623;DHT22;11478;51.094;7.030;2023-04-26T05:46:23;0.80;99.90
22623;DHT22;11478;51.094;7.030;2023-04-26T05:48:49;0.90;99.90
22623;DHT22;11478;51.094;7.030;2023-04-26T05:51:23;1.00;99.90
22623;DHT22;11478;51.094;7.030;2023-04-26T05:53:49;1.10;99.90
22623;DHT22;11478;51.094;7.030;2023-04-26T05:56:19;1.60;99.90
22623;DHT22;11478;51.094;7.030;2023-04-26T05:58:45;2.10;99.90
22623;DHT22;11478;51.094;7.030;2023-04-26T06:01:29;2.60;99.90
22623;DHT22;11478;51.094;7.030;2023-04-26T06:03:55;2.80;99.90
22623;DHT22;11478;51.094;7.030;2023-04-26T06:06:21;2.70;99.90
22623;DHT22;11478;51.094;7.030;2023-04-26T06:08:47;2.80;99.90
22623;DHT22;11478;51.094;7.030;2023-04-26T06:11:13;3.30;99.90
22623;DHT22;11478;51.094;7.030;2023-04-26T06:13:38;4.10;99.90
22623;DHT22;11478;51.094;7.030;2023-04-26T06:16:22;4.20;99.90
22623;DHT22;11478;51.094;7.030;2023-04-26T06:18:47;4.00;99.90
22623;DHT22;11478;51.094;7.030;2023-04-26T06:21:13;3.80;99.90
22623;DHT22;11478;51.094;7.030;2023-04-26T06:30:07;4.00;99.90
22623;DHT22;11478;51.094;7.030;2023-04-26T06:32:37;4.20;99.90
22623;DHT22;11478;51.094;7.030;2023-04-26T06:35:13;4.40;99.90
22623;DHT22;11478;51.094;7.030;2023-04-26T06:37:39;5.00;99.90
22623;DHT22;11478;51.094;7.030;2023-04-26T06:40:08;5.30;99.90
22623;DHT22;11478;51.094;7.030;2023-04-26T06:42:35;5.50;99.90
22623;DHT22;11478;51.094;7.030;2023-04-26T06:45:06;5.80;99.90
22623;DHT22;11478;51.094;7.030;2023-04-26T06:47:32;6.10;99.90
22623;DHT22;11478;51.094;7.030;2023-04-26T06:50:04;6.30;99.90
22623;DHT22;11478;51.094;7.030;2023-04-26T06:52:32;6.30;99.90
22623;DHT22;11478;51.094;7.030;2023-04-26T06:55:01;6.30;99.90
22623;DHT22;11478;51.094;7.030;2023-04-26T06:57:30;6.30;99.90
22623;DHT22;11478;51.094;7.030;2023-04-26T07:00:23;6.40;99.90
22623;DHT22;11478;51.094;7.030;2023-04-26T07:06:47;6.70;99.90
22623;DHT22;11478;51.094;7.030;2023-04-26T07:09:21;6.80;99.90
22623;DHT22;11478;51.094;7.030;2023-04-26T07:11:48;7.00;99.90
22623;DHT22;11478;51.094;7.030;2023-04-26T07:14:14;7.20;99.90
22623;DHT22;11478;51.094;7.030;2023-04-26T07:16:41;7.40;99.90
22623;DHT22;11478;51.094;7.030;2023-04-26T07:19:17;7.60;99.90
22623;DHT22;11478;51.094;7.030;2023-04-26T07:22:00;7.60;99.90
22623;DHT22;11478;51.094;7.030;2023-04-26T07:24:28;7.80;99.90
22623;DHT22;11478;51.094;7.030;2023-04-26T07:27:06;7.90;99.90
22623;DHT22;11478;51.094;7.030;2023-04-26T07:29:32;8.10;99.90
22623;DHT22;11478;51.094;7.030;2023-04-26T07:32:19;8.60;99.90
22623;DHT22;11478;51.094;7.030;2023-04-26T07:34:45;9.40;99.90
22623;DHT22;11478;51.094;7.030;2023-04-26T07:37:21;9.90;99.90
22623;DHT22;11478;51.094;7.030;2023-04-26T07:39:49;10.60;99.90
22623;DHT22;11478;51.094;7.030;2023-04-26T07:42:14;11.40;99.90
22623;DHT22;11478;51.094;7.030;2023-04-26T07:44:41;12.10;99.90
22623;DHT22;11478;51.094;7.030;2023-04-26T07:47:15;12.60;99.90
22623;DHT22;11478;51.094;7.030;2023-04-26T07:49:41;12.60;99.90
22623;DHT22;11478;51.094;7.030;2023-04-26T07:52:09;12.20;99.90
22623;DHT22;11478;51.094;7.030;2023-04-26T07:54:35;11.80;99.90
22623;DHT22;11478;51.094;7.030;2023-04-26T07:57:02;11.20;99.90
22623;DHT22;11478;51.094;7.030;2023-04-26T07:59:28;10.90;99.90
22623;DHT22;11478;51.094;7.030;2023-04-26T08:02:01;10.70;99.90
22623;DHT22;11478;51.094;7.030;2023-04-26T08:04:34;10.50;99.90
22623;DHT22;11478;51.094;7.030;2023-04-26T08:07:04;10.50;99.90
22623;DHT22;11478;51.094;7.030;2023-04-26T08:09:30;10.60;99.90
22623;DHT22;11478;51.094;7.030;2023-04-26T08:11:57;10.70;99.90
22623;DHT22;11478;51.094;7.030;2023-04-26T08:14:23;10.50;99.90
22623;DHT22;11478;51.094;7.030;2023-04-26T08:16:50;10.30;99.90
22623;DHT22;11478;51.094;7.030;2023-04-26T08:19:16;10.40;99.90
22623;DHT22;11478;51.094;7.030;2023-04-26T08:21:41;10.40;99.90
22623;DHT22;11478;51.094;7.030;2023-04-26T08:24:07;10.30;99.90
22623;DHT22;11478;51.094;7.030;2023-04-26T08:26:33;10.10;99.90
22623;DHT22;11478;51.094;7.030;2023-04-26T08:28:59;9.90;99.90
22623;DHT22;11478;51.094;7.030;2023-04-26T08:31:25;9.90;99.90
22623;DHT22;11478;51.094;7.030;2023-04-26T08:33:51;10.00;99.90
22623;DHT22;11478;51.094;7.030;2023-04-26T08:36:19;10.10;99.90
22623;DHT22;11478;51.094;7.030;2023-04-26T08:38:45;10.30;99.90
22623;DHT22;11478;51.094;7.030;2023-04-26T08:41:21;10.50;99.90
22623;DHT22;11478;51.094;7.030;2023-04-26T08:43:49;10.80;99.90
22623;DHT22;11478;51.094;7.030;2023-04-26T08:46:18;11.10;99.90
22623;DHT22;11478;51.094;7.030;2023-04-26T08:48:48;11.20;99.90
22623;DHT22;11478;51.094;7.030;2023-04-26T08:51:21;11.40;99.90
22623;DHT22;11478;51.094;7.030;2023-04-26T08:53:48;11.60;99.90
22623;DHT22;11478;51.094;7.030;2023-04-26T08:56:15;11.60;99.90
22623;DHT22;11478;51.094;7.030;2023-04-26T08:58:43;11.70;99.90
22623;DHT22;11478;51.094;7.030;2023-04-26T09:01:09;11.70;99.90
22623;DHT22;11478;51.094;7.030;2023-04-26T09:03:49;11.60;99.90
22623;DHT22;11478;51.094;7.030;2023-04-26T09:06:15;11.40;99.90
22623;DHT22;11478;51.094;7.030;2023-04-26T09:08:45;11.20;99.90
22623;DHT22;11478;51.094;7.030;2023-04-26T09:11:11;11.20;99.90
22623;DHT22;11478;51.094;7.030;2023-04-26T09:13:43;11.10;99.90
22623;DHT22;11478;51.094;7.030;2023-04-26T09:16:10;11.30;99.90
22623;DHT22;11478;51.094;7.030;2023-04-26T09:18:48;11.60;99.90
22623;DHT22;11478;51.094;7.030;2023-04-26T09:21:15;12.10;99.90
22623;DHT22;11478;51.094;7.030;2023-04-26T09:24:00;12.20;99.90
22623;DHT22;11478;51.094;7.030;2023-04-26T09:26:29;12.00;99.90
22623;DHT22;11478;51.094;7.030;2023-04-26T09:29:12;11.40;99.90
22623;DHT22;11478;51.094;7.030;2023-04-26T09:31:43;10.90;99.90
22623;DHT22;11478;51.094;7.030;2023-04-26T09:34:14;10.70;99.90
22623;DHT22;11478;51.094;7.030;2023-04-26T09:36:50;10.40;99.90
22623;DHT22;11478;51.094;7.030;2023-04-26T09:39:35;10.00;99.90
22623;DHT22;11478;51.094;7.030;2023-04-26T09:42:06;9.70;99.90
22623;DHT22;11478;51.094;7.030;2023-04-26T09:44:32;9.70;99.90
22623;DHT22;11478;51.094;7.030;2023-04-26T09:47:04;9.90;99.90
22623;DHT22;11478;51.094;7.030;2023-04-26T09:49:45;10.10;99.90
22623;DHT22;11478;51.094;7.030;2023-04-26T09:52:13;10.20;99.90
22623;DHT22;11478;51.094;7.030;2023-04-26T09:54:46;10.30;99.90
22623;DHT22;11478;51.094;7.030;2023-04-26T09:57:14;10.40;99.90
22623;DHT22;11478;51.094;7.030;2023-04-26T09:59:50;10.40;99.90
22623;DHT22;11478;51.094;7.030;2023-04-26T10:04:55;11.00;99.90
22623;DHT22;11478;51.094;7.030;2023-04-26T10:07:23;11.10;99.90
22623;DHT22;11478;51.094;7.030;2023-04-26T10:09:50;11.40;99.90
22623;DHT22;11478;51.094;7.030;2023-04-26T10:12:18;11.80;99.90
22623;DHT22;11478;51.094;7.030;2023-04-26T10:14:47;12.40;99.90
22623;DHT22;11478;51.094;7.030;2023-04-26T10:17:13;12.60;99.90
22623;DHT22;11478;51.094;7.030;2023-04-26T10:19:42;12.70;99.90
22623;DHT22;11478;51.094;7.030;2023-04-26T10:22:16;12.50;99.90
22623;DHT22;11478;51.094;7.030;2023-04-26T10:24:47;12.10;99.90
22623;DHT22;11478;51.094;7.030;2023-04-26T10:27:13;11.90;99.90
22623;DHT22;11478;51.094;7.030;2023-04-26T10:32:21;11.70;99.90
22623;DHT22;11478;51.094;7.030;2023-04-26T10:35:11;11.60;99.90
22623;DHT22;11478;51.094;7.030;2023-04-26T10:40:33;11.40;99.90
22623;DHT22;11478;51.094;7.030;2023-04-26T10:45:47;11.40;99.90
22623;DHT22;11478;51.094;7.030;2023-04-26T10:58:48;11.60;99.90
22623;DHT22;11478;51.094;7.030;2023-04-26T11:01:16;12.10;99.90
22623;DHT22;11478;51.094;7.030;2023-04-26T11:04:00;12.80;99.90
22623;DHT22;11478;51.094;7.030;2023-04-26T11:06:26;13.30;99.90
22623;DHT22;11478;51.094;7.030;2023-04-26T11:09:47;13.90;99.90
22623;DHT22;11478;51.094;7.030;2023-04-26T11:12:16;14.30;98.30
22623;DHT22;11478;51.094;7.030;2023-04-26T11:14:43;14.20;99.70
22623;DHT22;11478;51.094;7.030;2023-04-26T11:17:11;14.10;99.80
22623;DHT22;11478;51.094;7.030;2023-04-26T11:19:39;14.00;98.10
22623;DHT22;11478;51.094;7.030;2023-04-26T11:22:08;13.60;93.60
22623;DHT22;11478;51.094;7.030;2023-04-26T11:24:35;13.30;97.10
22623;DHT22;11478;51.094;7.030;2023-04-26T11:27:10;13.20;95.80
22623;DHT22;11478;51.094;7.030;2023-04-26T11:29:40;13.10;97.00
22623;DHT22;11478;51.094;7.030;2023-04-26T11:32:06;13.00;94.10
22623;DHT22;11478;51.094;7.030;2023-04-26T11:34:37;12.80;96.30
22623;DHT22;11478;51.094;7.030;2023-04-26T11:39:49;12.50;97.20
22623;DHT22;11478;51.094;7.030;2023-04-26T11:42:16;12.40;97.10
22623;DHT22;11478;51.094;7.030;2023-04-26T11:44:42;12.30;97.90
22623;DHT22;11478;51.094;7.030;2023-04-26T11:47:08;12.30;99.30
22623;DHT22;11478;51.094;7.030;2023-04-26T11:49:41;12.10;97.10
22623;DHT22;11478;51.094;7.030;2023-04-26T11:52:12;12.10;97.00
22623;DHT22;11478;51.094;7.030;2023-04-26T11:54:41;11.70;95.00
22623;DHT22;11478;51.094;7.030;2023-04-26T11:57:20;11.50;95.10
22623;DHT22;11478;51.094;7.030;2023-04-26T11:59:46;11.30;94.90
22623;DHT22;11478;51.094;7.030;2023-04-26T12:02:15;11.10;96.30
22623;DHT22;11478;51.094;7.030;2023-04-26T12:04:41;11.00;95.70
22623;DHT22;11478;51.094;7.030;2023-04-26T12:07:21;11.00;96.80
22623;DHT22;11478;51.094;7.030;2023-04-26T12:09:47;11.30;97.40
22623;DHT22;11478;51.094;7.030;2023-04-26T12:12:13;11.60;99.40
22623;DHT22;11478;51.094;7.030;2023-04-26T12:14:39;11.70;95.20
22623;DHT22;11478;51.094;7.030;2023-04-26T12:17:14;11.40;97.10
22623;DHT22;11478;51.094;7.030;2023-04-26T12:19:40;11.20;98.30
22623;DHT22;11478;51.094;7.030;2023-04-26T12:22:06;11.20;98.20
22623;DHT22;11478;51.094;7.030;2023-04-26T12:24:33;11.20;97.40
22623;DHT22;11478;51.094;7.030;2023-04-26T12:27:06;11.10;97.90
22623;DHT22;11478;51.094;7.030;2023-04-26T12:29:32;10.80;95.90
22623;DHT22;11478;51.094;7.030;2023-04-26T12:31:59;10.60;97.30
22623;DHT22;11478;51.094;7.030;2023-04-26T12:34:25;10.50;99.60
22623;DHT22;11478;51.094;7.030;2023-04-26T12:36:51;10.50;99.00
22623;DHT22;11478;51.094;7.030;2023-04-26T12:39:17;10.60;99.50
22623;DHT22;11478;51.094;7.030;2023-04-26T12:41:44;10.60;97.70
22623;DHT22;11478;51.094;7.030;2023-04-26T12:44:13;10.60;99.00
22623;DHT22;11478;51.094;7.030;2023-04-26T12:46:45;10.70;99.50
22623;DHT22;11478;51.094;7.030;2023-04-26T12:49:11;10.70;96.20
22623;DHT22;11478;51.094;7.030;2023-04-26T12:51:38;10.80;95.40
22623;DHT22;11478;51.094;7.030;2023-04-26T12:54:04;10.70;95.90
22623;DHT22;11478;51.094;7.030;2023-04-26T12:56:37;10.90;95.80
22623;DHT22;11478;51.094;7.030;2023-04-26T12:59:08;11.20;99.20
22623;DHT22;11478;51.094;7.030;2023-04-26T13:01:35;11.50;96.10
22623;DHT22;11478;51.094;7.030;2023-04-26T13:04:01;11.80;94.70
22623;DHT22;11478;51.094;7.030;2023-04-26T13:06:29;11.70;95.10
22623;DHT22;11478;51.094;7.030;2023-04-26T13:08:56;11.60;96.40
22623;DHT22;11478;51.094;7.030;2023-04-26T13:11:22;11.80;95.40
22623;DHT22;11478;51.094;7.030;2023-04-26T13:13:48;12.10;98.10
22623;DHT22;11478;51.094;7.030;2023-04-26T13:16:21;12.60;97.20
22623;DHT22;11478;51.094;7.030;2023-04-26T13:18:47;13.00;96.50
22623;DHT22;11478;51.094;7.030;2023-04-26T13:21:16;13.40;97.80
22623;DHT22;11478;51.094;7.030;2023-04-26T13:23:42;13.80;95.90
22623;DHT22;11478;51.094;7.030;2023-04-26T13:26:09;13.90;94.30
22623;DHT22;11478;51.094;7.030;2023-04-26T13:28:35;13.70;94.90
22623;DHT22;11478;51.094;7.030;2023-04-26T13:31:10;13.50;96.40
22623;DHT22;11478;51.094;7.030;2023-04-26T13:33:41;13.20;94.20
22623;DHT22;11478;51.094;7.030;2023-04-26T13:36:07;13.10;94.30
22623;DHT22;11478;51.094;7.030;2023-04-26T13:38:34;13.10;95.00
22623;DHT22;11478;51.094;7.030;2023-04-26T13:41:06;13.00;94.40
22623;DHT22;11478;51.094;7.030;2023-04-26T13:43:32;12.90;95.80
22623;DHT22;11478;51.094;7.030;2023-04-26T13:46:01;12.90;94.70
22623;DHT22;11478;51.094;7.030;2023-04-26T13:48:27;13.00;93.20
22623;DHT22;11478;51.094;7.030;2023-04-26T13:50:55;12.90;93.20
22623;DHT22;11478;51.094;7.030;2023-04-26T13:53:21;13.00;94.30
22623;DHT22;11478;51.094;7.030;2023-04-26T13:55:47;13.40;93.10
22623;DHT22;11478;51.094;7.030;2023-04-26T13:58:13;13.50;96.50
22623;DHT22;11478;51.094;7.030;2023-04-26T14:00:45;13.70;96.00
22623;DHT22;11478;51.094;7.030;2023-04-26T14:03:11;13.80;92.00
22623;DHT22;11478;51.094;7.030;2023-04-26T14:05:37;13.80;91.60
22623;DHT22;11478;51.094;7.030;2023-04-26T14:08:03;13.70;92.10
22623;DHT22;11478;51.094;7.030;2023-04-26T14:10:29;13.70;90.60
22623;DHT22;11478;51.094;7.030;2023-04-26T14:13:01;13.70;91.10
22623;DHT22;11478;51.094;7.030;2023-04-26T14:15:27;13.60;91.20
22623;DHT22;11478;51.094;7.030;2023-04-26T14:17:53;13.50;90.90
22623;DHT22;11478;51.094;7.030;2023-04-26T14:20:22;13.50;91.90
22623;DHT22;11478;51.094;7.030;2023-04-26T14:22:50;13.40;92.40
22623;DHT22;11478;51.094;7.030;2023-04-26T14:25:22;13.30;93.40
22623;DHT22;11478;51.094;7.030;2023-04-26T14:27:50;13.30;91.70
22623;DHT22;11478;51.094;7.030;2023-04-26T14:30:33;13.20;94.00
22623;DHT22;11478;51.094;7.030;2023-04-26T14:32:59;12.90;92.30
22623;DHT22;11478;51.094;7.030;2023-04-26T14:35:30;12.90;93.50
22623;DHT22;11478;51.094;7.030;2023-04-26T14:37:56;13.00;92.60
22623;DHT22;11478;51.094;7.030;2023-04-26T14:40:22;13.10;94.10
22623;DHT22;11478;51.094;7.030;2023-04-26T14:42:48;13.10;92.90
22623;DHT22;11478;51.094;7.030;2023-04-26T14:45:20;13.00;93.80
22623;DHT22;11478;51.094;7.030;2023-04-26T14:47:52;12.80;93.10
22623;DHT22;11478;51.094;7.030;2023-04-26T14:50:37;12.60;93.10
22623;DHT22;11478;51.094;7.030;2023-04-26T14:53:02;12.40;94.60
22623;DHT22;11478;51.094;7.030;2023-04-26T14:58:13;12.00;94.20
22623;DHT22;11478;51.094;7.030;2023-04-26T15:01:08;12.00;94.90
22623;DHT22;11478;51.094;7.030;2023-04-26T15:03:41;11.90;92.90
22623;DHT22;11478;51.094;7.030;2023-04-26T15:06:08;11.70;92.80
22623;DHT22;11478;51.094;7.030;2023-04-26T15:12:03;11.70;95.30
22623;DHT22;11478;51.094;7.030;2023-04-26T15:14:48;11.80;92.90
22623;DHT22;11478;51.094;7.030;2023-04-26T15:17:43;11.80;92.20
22623;DHT22;11478;51.094;7.030;2023-04-26T15:20:39;11.80;95.30
22623;DHT22;11478;51.094;7.030;2023-04-26T15:23:39;11.90;93.60
22623;DHT22;11478;51.094;7.030;2023-04-26T15:26:53;12.30;94.30
22623;DHT22;11478;51.094;7.030;2023-04-26T15:29:21;12.50;91.90
22623;DHT22;11478;51.094;7.030;2023-04-26T15:31:52;12.80;93.10
22623;DHT22;11478;51.094;7.030;2023-04-26T15:34:20;13.10;91.10
22623;DHT22;11478;51.094;7.030;2023-04-26T15:36:49;13.50;91.90
22623;DHT22;11478;51.094;7.030;2023-04-26T15:39:18;13.70;90.60
22623;DHT22;11478;51.094;7.030;2023-04-26T15:41:44;13.80;90.70
22623;DHT22;11478;51.094;7.030;2023-04-26T15:44:10;14.00;93.90
22623;DHT22;11478;51.094;7.030;2023-04-26T15:46:37;14.10;92.10
22623;DHT22;11478;51.094;7.030;2023-04-26T15:49:03;14.10;87.40
22623;DHT22;11478;51.094;7.030;2023-04-26T15:51:31;14.20;86.40
22623;DHT22;11478;51.094;7.030;2023-04-26T15:53:57;14.10;87.50
22623;DHT22;11478;51.094;7.030;2023-04-26T15:56:24;14.00;90.00
22623;DHT22;11478;51.094;7.030;2023-04-26T15:58:51;13.70;89.80
22623;DHT22;11478;51.094;7.030;2023-04-26T16:01:20;13.50;90.40
22623;DHT22;11478;51.094;7.030;2023-04-26T16:03:47;13.50;91.80
22623;DHT22;11478;51.094;7.030;2023-04-26T16:06:14;13.30;90.10
22623;DHT22;11478;51.094;7.030;2023-04-26T16:08:42;13.10;90.10
22623;DHT22;11478;51.094;7.030;2023-04-26T16:11:08;12.90;89.60
22623;DHT22;11478;51.094;7.030;2023-04-26T16:13:34;12.90;92.00
22623;DHT22;11478;51.094;7.030;2023-04-26T16:15:59;12.90;88.90
22623;DHT22;11478;51.094;7.030;2023-04-26T16:18:29;12.80;92.00
22623;DHT22;11478;51.094;7.030;2023-04-26T16:21:02;12.70;90.60
22623;DHT22;11478;51.094;7.030;2023-04-26T16:23:30;12.60;91.10
22623;DHT22;11478;51.094;7.030;2023-04-26T16:25:56;12.60;91.30
22623;DHT22;11478;51.094;7.030;2023-04-26T16:28:22;12.60;91.40
22623;DHT22;11478;51.094;7.030;2023-04-26T16:30:49;12.60;90.90
22623;DHT22;11478;51.094;7.030;2023-04-26T16:33:15;12.50;90.50
22623;DHT22;11478;51.094;7.030;2023-04-26T16:35:41;12.40;91.00
22623;DHT22;11478;51.094;7.030;2023-04-26T16:38:07;12.20;91.90